createdAt,value
2022-10-16T00:01:30.987Z,100516.44
2022-10-16T00:03:59.941Z,100506.09
2022-10-16T00:06:27.883Z,100495.38
2022-10-16T00:08:57.541Z,100494.59
2022-10-16T00:11:28.535Z,100500.31
2022-10-16T00:14:00.567Z,100491.75
2022-10-16T00:16:29.561Z,100479.91
2022-10-16T00:18:59.940Z,100479.53
2022-10-16T00:21:29.331Z,100487.16
2022-10-16T00:24:01.568Z,100500.78
2022-10-16T00:26:30.444Z,100499.38
2022-10-16T00:28:57.670Z,100506.38
2022-10-16T00:31:30.229Z,100499.66
2022-10-16T00:34:18.855Z,100505.69
2022-10-16T00:36:47.719Z,100506.88
2022-10-16T00:39:14.467Z,100504.25
2022-10-16T00:41:44.503Z,100511.78
2022-10-16T00:44:48.866Z,100516.59
2022-10-16T00:47:27.598Z,100514.56
2022-10-16T00:50:03.758Z,100524.72
2022-10-16T00:52:30.876Z,100526.16
2022-10-16T00:54:58.888Z,100521.25
2022-10-16T00:57:26.440Z,100507.59
2022-10-16T00:59:54.250Z,100514.44
2022-10-16T01:02:21.244Z,100516.94
2022-10-16T01:04:53.790Z,100506.38
2022-10-16T01:07:39.151Z,100512.03
2022-10-16T01:10:17.597Z,100525.16
2022-10-16T01:13:00.267Z,100513.41
2022-10-16T01:15:48.086Z,100514.03
2022-10-16T01:18:29.988Z,100530.88
2022-10-16T01:21:04.410Z,100529.66
2022-10-16T01:23:43.412Z,100527.78
2022-10-16T01:26:26.010Z,100527.47
2022-10-16T01:28:59.344Z,100525.25
2022-10-16T01:31:30.723Z,100529.50
2022-10-16T01:34:09.563Z,100531.47
2022-10-16T01:36:53.276Z,100530.75
2022-10-16T01:39:24.707Z,100536.06
2022-10-16T01:41:59.915Z,100552.72
2022-10-16T01:44:32.046Z,100543.91
2022-10-16T01:46:59.578Z,100553.53
2022-10-16T01:49:30.717Z,100552.75
2022-10-16T01:54:36.061Z,100535.88
2022-10-16T01:57:05.360Z,100539.19
2022-10-16T01:59:41.397Z,100533.78
2022-10-16T02:02:12.320Z,100524.66
2022-10-16T02:04:43.581Z,100534.38
2022-10-16T02:07:11.242Z,100522.00
2022-10-16T02:09:38.857Z,100526.69
2022-10-16T02:12:24.451Z,100530.81
2022-10-16T02:14:51.437Z,100532.00
2022-10-16T02:17:19.028Z,100530.41
2022-10-16T02:19:48.136Z,100529.28
2022-10-16T02:22:44.025Z,100530.97
2022-10-16T02:25:23.042Z,100533.63
2022-10-16T02:27:53.663Z,100532.44
2022-10-16T02:30:28.502Z,100535.22
2022-10-16T02:32:57.546Z,100538.44
2022-10-16T02:35:25.390Z,100538.66
2022-10-16T02:37:53.285Z,100530.25
2022-10-16T02:40:24.354Z,100524.31
2022-10-16T02:42:54.098Z,100524.72
2022-10-16T02:45:21.287Z,100530.97
2022-10-16T02:47:48.039Z,100537.22
2022-10-16T02:50:14.949Z,100536.34
2022-10-16T02:52:42.313Z,100541.97
2022-10-16T02:55:09.216Z,100551.06
2022-10-16T02:57:37.740Z,100554.09
2022-10-16T03:00:09.701Z,100557.38
2022-10-16T03:02:36.443Z,100561.09
2022-10-16T03:05:03.134Z,100549.97
2022-10-16T03:07:29.649Z,100549.69
2022-10-16T03:09:56.396Z,100531.66
2022-10-16T03:12:23.099Z,100541.56
2022-10-16T03:14:49.631Z,100537.69
2022-10-16T03:17:17.714Z,100545.28
2022-10-16T03:19:44.388Z,100534.97
2022-10-16T03:22:11.172Z,100539.28
2022-10-16T03:24:37.712Z,100545.28
2022-10-16T03:27:04.410Z,100547.69
2022-10-16T03:29:30.991Z,100543.09
2022-10-16T03:31:57.649Z,100547.09
2022-10-16T03:34:24.301Z,100535.25
2022-10-16T03:36:51.110Z,100543.25
2022-10-16T03:39:17.682Z,100540.06
2022-10-16T03:41:44.338Z,100541.75
2022-10-16T03:44:10.960Z,100551.06
2022-10-16T03:46:37.490Z,100549.59
2022-10-16T03:49:06.114Z,100553.31
2022-10-16T03:51:35.468Z,100559.91
2022-10-16T03:54:02.032Z,100563.75
2022-10-16T03:56:58.674Z,100560.72
2022-10-16T03:59:25.205Z,100569.72
2022-10-16T04:01:51.850Z,100574.34
2022-10-16T04:04:18.949Z,100572.25
2022-10-16T04:06:45.453Z,100562.22
2022-10-16T04:09:12.050Z,100564.41
2022-10-16T04:14:23.407Z,100575.66
2022-10-16T04:16:50.053Z,100578.88
2022-10-16T04:19:40.419Z,100580.38
2022-10-16T04:22:33.084Z,100590.03
2022-10-16T04:24:59.622Z,100592.44
2022-10-16T04:27:27.303Z,100598.16
2022-10-16T04:30:17.374Z,100590.63
2022-10-16T04:32:53.719Z,100575.56
2022-10-16T04:35:23.612Z,100571.34
2022-10-16T04:37:51.372Z,100589.78
2022-10-16T04:40:24.111Z,100586.75
2022-10-16T04:42:53.771Z,100592.00
2022-10-16T04:45:21.918Z,100588.31
2022-10-16T04:47:48.436Z,100581.06
2022-10-16T04:50:15.063Z,100581.63
2022-10-16T04:52:58.721Z,100569.03
2022-10-16T04:55:25.266Z,100570.50
2022-10-16T04:57:51.776Z,100578.69
2022-10-16T05:00:18.310Z,100569.25
2022-10-16T05:02:44.908Z,100570.41
2022-10-16T05:05:11.533Z,100577.22
2022-10-16T05:07:38.278Z,100581.84
2022-10-16T05:10:05.176Z,100575.03
2022-10-16T05:12:31.880Z,100572.31
2022-10-16T05:14:59.622Z,100577.00
2022-10-16T05:17:27.611Z,100580.44
2022-10-16T05:19:54.475Z,100575.47
2022-10-16T05:22:21.247Z,100570.06
2022-10-16T05:24:47.942Z,100553.91
2022-10-16T05:27:19.958Z,100546.38
2022-10-16T05:29:48.028Z,100551.28
2022-10-16T05:32:15.744Z,100559.09
2022-10-16T05:34:42.399Z,100551.63
2022-10-16T05:37:10.005Z,100550.78
2022-10-16T05:39:37.812Z,100553.16
2022-10-16T05:42:05.807Z,100563.69
2022-10-16T05:47:04.105Z,100596.44
2022-10-16T05:49:30.875Z,100607.22
2022-10-16T05:51:57.554Z,100601.69
2022-10-16T05:54:24.105Z,100595.09
2022-10-16T05:56:50.681Z,100595.09
2022-10-16T05:59:17.292Z,100591.91
2022-10-16T06:01:43.830Z,100599.81
2022-10-16T06:06:37.608Z,100616.91
2022-10-16T06:09:04.539Z,100630.91
2022-10-16T06:11:32.818Z,100622.72
2022-10-16T06:14:07.448Z,100616.44
2022-10-16T06:16:36.116Z,100626.97
2022-10-16T06:19:05.220Z,100626.88
2022-10-16T06:21:31.801Z,100637.66
2022-10-16T06:23:59.537Z,100634.44
2022-10-16T06:26:28.865Z,100637.66
2022-10-16T06:28:57.154Z,100626.38
2022-10-16T06:31:28.349Z,100638.59
2022-10-16T06:33:55.746Z,100646.44
2022-10-16T06:36:22.326Z,100645.81
2022-10-16T06:38:48.890Z,100642.59
2022-10-16T06:41:18.410Z,100646.66
2022-10-16T06:43:48.175Z,100647.34
2022-10-16T06:46:15.936Z,100652.56
2022-10-16T06:48:42.833Z,100657.75
2022-10-16T06:51:15.019Z,100652.72
2022-10-16T06:54:01.466Z,100664.47
2022-10-16T06:56:30.651Z,100669.31
2022-10-16T06:58:57.201Z,100672.44
2022-10-16T07:01:25.286Z,100682.38
2022-10-16T07:03:52.267Z,100683.13
2022-10-16T07:06:22.353Z,100680.69
2022-10-16T07:08:49.214Z,100680.66
2022-10-16T07:11:18.988Z,100679.63
2022-10-16T07:13:50.751Z,100698.59
2022-10-16T07:16:23.811Z,100699.66
2022-10-16T07:18:55.058Z,100709.59
2022-10-16T07:21:23.712Z,100713.50
2022-10-16T07:24:02.104Z,100708.63
2022-10-16T07:26:31.826Z,100716.88
2022-10-16T07:28:58.637Z,100725.00
2022-10-16T07:31:26.134Z,100725.34
2022-10-16T07:33:52.798Z,100737.97
2022-10-16T07:36:20.794Z,100730.94
2022-10-16T07:38:48.059Z,100738.06
2022-10-16T07:41:17.168Z,100733.16
2022-10-16T07:43:48.436Z,100730.53
2022-10-16T07:46:15.827Z,100738.56
2022-10-16T07:48:46.456Z,100737.16
2022-10-16T07:51:14.548Z,100730.50
2022-10-16T07:53:41.073Z,100734.44
2022-10-16T07:56:08.510Z,100740.69
2022-10-16T07:58:38.049Z,100755.09
2022-10-16T08:01:09.910Z,100746.47
2022-10-16T08:03:36.907Z,100748.38
2022-10-16T08:06:04.957Z,100752.50
2022-10-16T08:08:31.638Z,100753.25
2022-10-16T08:10:58.199Z,100748.63
2022-10-16T08:13:24.917Z,100754.81
2022-10-16T08:15:51.688Z,100755.28
2022-10-16T08:18:18.719Z,100752.06
2022-10-16T08:20:45.446Z,100758.94
2022-10-16T08:23:14.015Z,100761.34
2022-10-16T08:25:41.898Z,100769.09
2022-10-16T08:28:11.006Z,100769.53
2022-10-16T08:30:38.043Z,100787.47
2022-10-16T08:33:04.944Z,100785.56
2022-10-16T08:35:31.488Z,100780.03
2022-10-16T08:37:58.111Z,100783.38
2022-10-16T08:40:33.617Z,100797.59
2022-10-16T08:43:22.127Z,100804.44
2022-10-16T08:46:17.856Z,100861.66
2022-10-16T08:48:51.089Z,100900.09
2022-10-16T08:51:33.835Z,100878.06
2022-10-16T08:54:05.224Z,100866.09
2022-10-16T08:56:32.004Z,100869.94
2022-10-16T08:59:02.294Z,100844.38
2022-10-16T09:01:46.404Z,100834.88
2022-10-16T09:04:12.945Z,100844.59
2022-10-16T09:06:54.982Z,100850.41
2022-10-16T09:09:34.071Z,100844.28
2022-10-16T09:12:08.963Z,100840.84
2022-10-16T09:14:47.964Z,100842.59
2022-10-16T09:17:36.501Z,100849.91
2022-10-16T09:20:19.561Z,100851.84
2022-10-16T09:22:46.425Z,100868.06
2022-10-16T09:25:20.579Z,100860.06
2022-10-16T09:27:49.530Z,100857.00
2022-10-16T09:30:19.406Z,100860.94
2022-10-16T09:32:49.460Z,100865.84
2022-10-16T09:35:22.736Z,100856.56
2022-10-16T09:37:52.192Z,100858.47
2022-10-16T09:40:45.558Z,100852.91
2022-10-16T09:43:32.187Z,100862.81
2022-10-16T09:46:23.429Z,100865.81
2022-10-16T09:48:55.399Z,100865.00
2022-10-16T09:51:38.461Z,100865.53
2022-10-16T09:54:11.071Z,100877.69
2022-10-16T09:56:40.155Z,100873.16
2022-10-16T09:59:18.498Z,100864.66
2022-10-16T10:01:53.784Z,100866.84
2022-10-16T10:04:23.245Z,100867.41
2022-10-16T10:06:51.701Z,100867.41
2022-10-16T10:09:24.414Z,100866.88
2022-10-16T10:14:48.584Z,100853.81
2022-10-16T10:17:19.041Z,100852.97
2022-10-16T10:19:55.978Z,100860.91
2022-10-16T10:22:29.089Z,100868.56
2022-10-16T10:25:19.312Z,100869.47
2022-10-16T10:28:23.517Z,100870.50
2022-10-16T10:31:18.163Z,100854.63
2022-10-16T10:33:50.066Z,100866.03
2022-10-16T10:36:42.064Z,100864.41
2022-10-16T10:39:33.081Z,100862.50
2022-10-16T10:42:09.993Z,100852.06
2022-10-16T10:45:01.738Z,100858.66
2022-10-16T10:47:43.480Z,100851.28
2022-10-16T10:50:29.118Z,100848.72
2022-10-16T10:53:01.922Z,100845.81
2022-10-16T10:55:38.942Z,100849.97
2022-10-16T10:58:17.801Z,100846.44
2022-10-16T11:01:03.038Z,100840.25
2022-10-16T11:03:58.175Z,100821.53
2022-10-16T11:06:34.898Z,100823.28
2022-10-16T11:09:11.199Z,100816.78
2022-10-16T11:11:45.498Z,100807.00
2022-10-16T11:14:17.905Z,100806.78
2022-10-16T11:16:50.803Z,100809.16
2022-10-16T11:19:36.771Z,100807.50
2022-10-16T11:22:23.563Z,100806.16
2022-10-16T11:25:05.328Z,100804.13
2022-10-16T11:27:42.806Z,100807.28
2022-10-16T11:30:22.727Z,100806.28
2022-10-16T11:33:01.709Z,100809.97
2022-10-16T11:35:52.554Z,100791.16
2022-10-16T11:38:44.441Z,100790.47
2022-10-16T11:41:39.407Z,100790.81
2022-10-16T11:44:32.600Z,100790.63
2022-10-16T11:49:58.892Z,100789.84
2022-10-16T11:52:45.573Z,100797.72
2022-10-16T11:55:21.953Z,100797.00
2022-10-16T11:58:15.025Z,100793.25
2022-10-16T12:00:48.735Z,100784.81
2022-10-16T12:03:41.986Z,100786.41
2022-10-16T12:06:24.500Z,100798.34
2022-10-16T12:08:53.250Z,100802.38
2022-10-16T12:11:28.880Z,100792.94
2022-10-16T12:14:06.328Z,100804.19
2022-10-16T12:16:32.955Z,100798.38
2022-10-16T12:19:17.285Z,100794.06
2022-10-16T12:21:45.935Z,100796.38
2022-10-16T12:24:30.832Z,100793.38
2022-10-16T12:26:57.772Z,100793.38
2022-10-16T12:29:44.023Z,100790.63
2022-10-16T12:32:46.725Z,100791.53
2022-10-16T12:35:28.757Z,100795.28
2022-10-16T12:38:06.306Z,100797.75
2022-10-16T12:40:35.523Z,100795.25
2022-10-16T12:43:24.936Z,100796.41
2022-10-16T12:46:20.280Z,100784.13
2022-10-16T12:49:05.490Z,100783.22
2022-10-16T12:51:32.329Z,100780.06
2022-10-16T12:54:25.070Z,100787.09
2022-10-16T12:57:26.979Z,100780.34
2022-10-16T13:00:21.238Z,100785.13
2022-10-16T13:02:54.631Z,100787.81
2022-10-16T13:05:40.603Z,100790.78
2022-10-16T13:08:41.465Z,100799.69
2022-10-16T13:11:22.327Z,100792.28
2022-10-16T13:13:58.114Z,100798.28
2022-10-16T13:16:24.611Z,100801.72
2022-10-16T13:19:28.916Z,100807.78
2022-10-16T13:22:06.676Z,100802.75
2022-10-16T13:24:42.482Z,100804.91
2022-10-16T13:27:19.562Z,100812.34
2022-10-16T13:29:53.117Z,100808.81
2022-10-16T13:32:21.476Z,100810.13
2022-10-16T13:34:49.837Z,100805.97
2022-10-16T13:37:22.158Z,100802.81
2022-10-16T13:39:50.729Z,100799.44
2022-10-16T13:42:30.643Z,100804.44
2022-10-16T13:44:57.650Z,100813.66
2022-10-16T13:47:27.448Z,100806.38
2022-10-16T13:50:12.877Z,100800.38
2022-10-16T13:52:40.017Z,100798.97
2022-10-16T13:55:18.678Z,100805.63
2022-10-16T13:57:45.826Z,100805.31
2022-10-16T14:00:31.222Z,100814.16
2022-10-16T14:03:16.155Z,100816.59
2022-10-16T14:06:03.836Z,100804.44
2022-10-16T14:08:31.664Z,100807.94
2022-10-16T14:11:01.118Z,100818.88
2022-10-16T14:13:37.329Z,100821.09
2022-10-16T14:16:10.387Z,100811.50
2022-10-16T14:18:39.746Z,100809.22
2022-10-16T14:21:15.557Z,100812.59
2022-10-16T14:23:44.032Z,100812.13
2022-10-16T14:26:10.618Z,100812.63
2022-10-16T14:28:39.526Z,100817.28
2022-10-16T14:31:28.011Z,100802.34
2022-10-16T14:33:54.685Z,100807.81
2022-10-16T14:36:22.792Z,100805.25
2022-10-16T14:38:56.107Z,100815.66
2022-10-16T14:41:27.212Z,100811.50
2022-10-16T14:44:03.188Z,100808.75
2022-10-16T14:46:35.762Z,100813.91
2022-10-16T14:49:24.120Z,100819.84
2022-10-16T14:51:51.487Z,100821.91
2022-10-16T14:54:19.560Z,100817.59
2022-10-16T14:56:50.329Z,100823.03
2022-10-16T14:59:21.638Z,100824.31
2022-10-16T15:01:48.689Z,100814.03
2022-10-16T15:04:16.460Z,100814.69
2022-10-16T15:06:43.784Z,100813.56
2022-10-16T15:09:10.578Z,100821.56
2022-10-16T15:11:37.544Z,100825.28
2022-10-16T15:14:04.533Z,100822.88
2022-10-16T15:16:31.896Z,100820.94
2022-10-16T15:18:59.060Z,100821.72
2022-10-16T15:21:29.061Z,100831.88
2022-10-16T15:23:57.408Z,100836.66
2022-10-16T15:26:28.575Z,100834.75
2022-10-16T15:28:55.802Z,100835.84
2022-10-16T15:31:23.368Z,100838.09
2022-10-16T15:33:57.216Z,100840.97
2022-10-16T15:36:29.113Z,100836.31
2022-10-16T15:38:56.813Z,100841.16
2022-10-16T15:41:23.600Z,100838.25
2022-10-16T15:43:51.506Z,100830.56
2022-10-16T15:46:23.400Z,100832.97
2022-10-16T15:48:51.642Z,100833.78
2022-10-16T15:51:19.672Z,100832.31
2022-10-16T15:53:47.416Z,100830.09
2022-10-16T15:56:15.238Z,100837.28
2022-10-16T15:58:43.242Z,100841.75
2022-10-16T16:01:11.539Z,100840.09
2022-10-16T16:03:41.443Z,100837.38
2022-10-16T16:06:10.167Z,100838.13
2022-10-16T16:08:36.838Z,100836.34
2022-10-16T16:11:07.409Z,100846.72
2022-10-16T16:13:34.644Z,100836.91
2022-10-16T16:16:01.236Z,100848.56
2022-10-16T16:18:29.562Z,100846.78
2022-10-16T16:20:56.652Z,100848.31
2022-10-16T16:23:23.515Z,100843.31
2022-10-16T16:26:13.590Z,100844.56
2022-10-16T16:28:41.976Z,100846.44
2022-10-16T16:31:09.538Z,100850.56
2022-10-16T16:33:36.336Z,100846.88
2022-10-16T16:36:05.179Z,100845.09
2022-10-16T16:38:33.318Z,100850.34
2022-10-16T16:41:00.274Z,100850.94
2022-10-16T16:43:28.291Z,100843.91
2022-10-16T16:45:55.880Z,100838.47
2022-10-16T16:48:22.858Z,100844.41
2022-10-16T16:50:49.499Z,100856.38
2022-10-16T16:53:16.640Z,100864.53
2022-10-16T16:55:43.383Z,100869.13
2022-10-16T16:58:10.257Z,100867.25
2022-10-16T17:00:37.030Z,100870.22
2022-10-16T17:03:04.001Z,100866.00
2022-10-16T17:05:31.045Z,100876.06
2022-10-16T17:07:57.746Z,100877.28
2022-10-16T17:10:24.325Z,100876.31
2022-10-16T17:12:51.445Z,100874.97
2022-10-16T17:15:18.208Z,100873.34
2022-10-16T17:17:44.830Z,100875.06
2022-10-16T17:20:11.531Z,100878.41
2022-10-16T17:22:38.161Z,100880.13
2022-10-16T17:25:06.696Z,100889.16
2022-10-16T17:27:34.366Z,100885.16
2022-10-16T17:30:00.886Z,100891.78
2022-10-16T17:32:27.696Z,100889.19
2022-10-16T17:34:54.448Z,100895.22
2022-10-16T17:37:21.044Z,100897.13
2022-10-16T17:39:51.727Z,100902.84
2022-10-16T17:42:18.524Z,100904.06
2022-10-16T17:44:45.150Z,100909.81
2022-10-16T17:47:12.026Z,100893.81
2022-10-16T17:49:38.671Z,100902.75
2022-10-16T17:52:05.397Z,100900.25
2022-10-16T17:54:32.062Z,100898.03
2022-10-16T17:56:58.685Z,100895.81
2022-10-16T17:59:25.185Z,100902.06
2022-10-16T18:01:51.960Z,100903.47
2022-10-16T18:04:18.777Z,100904.88
2022-10-16T18:06:46.120Z,100906.09
2022-10-16T18:09:15.450Z,100899.16
2022-10-16T18:11:42.028Z,100906.28
2022-10-16T18:14:09.076Z,100916.13
2022-10-16T18:16:36.842Z,100922.03
2022-10-16T18:19:03.696Z,100926.88
2022-10-16T18:21:31.355Z,100927.38
2022-10-16T18:23:59.497Z,100928.97
2022-10-16T18:26:26.720Z,100929.19
2022-10-16T18:28:55.075Z,100932.41
2022-10-16T18:31:23.331Z,100930.22
2022-10-16T18:33:52.850Z,100933.22
2022-10-16T18:36:22.700Z,100923.56
2022-10-16T18:38:49.682Z,100923.03
2022-10-16T18:41:16.865Z,100923.16
2022-10-16T18:43:44.036Z,100921.41
2022-10-16T18:46:16.592Z,100916.25
2022-10-16T18:48:44.273Z,100927.09
2022-10-16T18:51:18.560Z,100919.28
2022-10-16T18:53:47.685Z,100924.38
2022-10-16T18:56:15.972Z,100920.88
2022-10-16T18:58:44.349Z,100922.78
2022-10-16T19:01:16.421Z,100924.88
2022-10-16T19:03:44.010Z,100920.03
2022-10-16T19:06:13.784Z,100924.59
2022-10-16T19:08:41.199Z,100927.31
2022-10-16T19:11:13.832Z,100926.28
2022-10-16T19:13:40.764Z,100930.69
2022-10-16T19:16:20.374Z,100934.31
2022-10-16T19:18:52.585Z,100933.13
2022-10-16T19:21:19.753Z,100933.72
2022-10-16T19:23:47.086Z,100935.31
2022-10-16T19:26:18.736Z,100945.09
2022-10-16T19:28:46.092Z,100954.91
2022-10-16T19:31:18.576Z,100960.84
2022-10-16T19:33:46.005Z,100961.13
2022-10-16T19:36:32.221Z,100960.09
2022-10-16T19:39:11.757Z,100961.28
2022-10-16T19:41:38.544Z,100968.09
2022-10-16T19:44:08.172Z,100968.09
2022-10-16T19:46:35.511Z,100967.81
2022-10-16T19:49:04.928Z,100975.72
2022-10-16T19:51:32.169Z,100975.22
2022-10-16T19:54:09.653Z,100983.63
2022-10-16T19:56:38.185Z,100981.75
2022-10-16T19:59:08.045Z,100981.75
2022-10-16T20:01:35.085Z,100986.19
2022-10-16T20:04:01.823Z,100991.69
2022-10-16T20:06:28.450Z,101001.94
2022-10-16T20:08:55.613Z,100995.94
2022-10-16T20:11:25.638Z,100993.75
2022-10-16T20:14:04.789Z,101001.91
2022-10-16T20:16:32.378Z,101007.09
2022-10-16T20:19:22.041Z,101008.47
2022-10-16T20:21:49.060Z,101004.72
2022-10-16T20:24:15.761Z,101006.34
2022-10-16T20:26:42.702Z,101004.13
2022-10-16T20:29:09.788Z,101004.66
2022-10-16T20:32:10.923Z,101007.59
2022-10-16T20:37:05.775Z,101016.09
2022-10-16T20:39:32.961Z,101023.72
2022-10-16T20:41:59.839Z,101026.41
2022-10-16T20:44:26.523Z,101021.56
2022-10-16T20:46:55.108Z,101020.47
2022-10-16T20:49:39.226Z,101034.03
2022-10-16T20:52:09.547Z,101033.50
2022-10-16T20:55:16.592Z,101045.44
2022-10-16T20:57:58.069Z,101040.38
2022-10-16T21:00:27.649Z,101039.81
2022-10-16T21:02:54.525Z,101042.81
2022-10-16T21:05:21.368Z,101045.59
2022-10-16T21:07:59.374Z,101046.66
2022-10-16T21:10:30.008Z,101048.31
2022-10-16T21:12:57.446Z,101049.47
2022-10-16T21:15:24.273Z,101050.06
2022-10-16T21:17:53.788Z,101047.84
2022-10-16T21:20:21.087Z,101047.28
2022-10-16T21:22:48.239Z,101054.31
2022-10-16T21:25:16.117Z,101049.69
2022-10-16T21:27:44.635Z,101056.97
2022-10-16T21:30:11.721Z,101051.53
2022-10-16T21:32:39.401Z,101053.28
2022-10-16T21:35:07.284Z,101060.88
2022-10-16T21:37:33.923Z,101061.44
2022-10-16T21:40:00.619Z,101052.53
2022-10-16T21:42:27.667Z,101054.72
2022-10-16T21:44:54.532Z,101056.63
2022-10-16T21:47:21.185Z,101063.13
2022-10-16T21:49:55.171Z,101063.63
2022-10-16T21:52:22.166Z,101055.56
2022-10-16T21:54:56.556Z,101056.38
2022-10-16T21:57:23.157Z,101060.41
2022-10-16T21:59:50.544Z,101063.97
2022-10-16T22:02:17.193Z,101069.63
2022-10-16T22:04:46.979Z,101065.25
2022-10-16T22:07:13.553Z,101058.84
2022-10-16T22:09:40.294Z,101068.94
2022-10-16T22:12:07.022Z,101067.84
2022-10-16T22:14:33.736Z,101069.41
2022-10-16T22:17:00.420Z,101073.53
2022-10-16T22:19:27.370Z,101064.06
2022-10-16T22:21:57.171Z,101072.47
2022-10-16T22:24:24.470Z,101074.19
2022-10-16T22:26:51.239Z,101072.31
2022-10-16T22:29:17.838Z,101074.72
2022-10-16T22:31:44.759Z,101073.59
2022-10-16T22:34:13.441Z,101075.50
2022-10-16T22:36:40.084Z,101069.84
2022-10-16T22:39:06.777Z,101071.97
2022-10-16T22:41:33.396Z,101084.38
2022-10-16T22:44:02.058Z,101076.75
2022-10-16T22:46:31.651Z,101071.94
2022-10-16T22:48:58.684Z,101075.78
2022-10-16T22:51:27.197Z,101084.69
2022-10-16T22:53:54.430Z,101080.16
2022-10-16T22:56:21.879Z,101071.78
2022-10-16T22:58:48.738Z,101071.31
2022-10-16T23:01:22.055Z,101067.50
2022-10-16T23:03:49.041Z,101076.97
2022-10-16T23:06:15.664Z,101082.31
2022-10-16T23:08:42.580Z,101073.94
2022-10-16T23:11:12.850Z,101077.44
2022-10-16T23:13:43.459Z,101081.81
2022-10-16T23:16:12.271Z,101088.84
2022-10-16T23:18:39.015Z,101090.69
2022-10-16T23:21:07.913Z,101095.88
2022-10-16T23:23:36.289Z,101094.81
2022-10-16T23:26:03.987Z,101091.84
2022-10-16T23:28:32.233Z,101097.50
2022-10-16T23:30:59.114Z,101106.16
2022-10-16T23:33:25.645Z,101103.13
2022-10-16T23:35:52.157Z,101114.22
2022-10-16T23:38:18.724Z,101110.41
2022-10-16T23:40:45.373Z,101113.41
2022-10-16T23:43:11.951Z,101115.28
2022-10-16T23:45:38.563Z,101118.84
2022-10-16T23:48:05.135Z,101118.84
2022-10-16T23:50:31.805Z,101121.81
2022-10-16T23:52:58.421Z,101114.22
2022-10-16T23:55:25.194Z,101114.22
2022-10-16T23:57:51.770Z,101118.59
